Umatilla, Florida
Current Conditions -  °F | °C
As of 12:53 PM on Thursday 30 Oct 2014 (Local Time) from KLEE Reporting Station
Broken Clouds Broken Clouds  
Wind Chill: 78°   Ceiling: 11000
Heat Index: 80°   Visibility: 10mi
Dew Point: 63°   Wind: 0mph
Humidity: 60%   Direction: NA
Pressure: 29.97"   Gusts: NA
Location:  28.93°N, 81.67°W
Report Text: KLEE 301653Z 00000KT 10SM FEW070 SCT090 BKN110 26/17 A2997 RMK AO2 SLP148 T02560172
Loading
Personal Weather Stations






























Interactive Weather Map
Tropical Storm Tracking
New forecast layout! Learn more

10-Day Weather Forecast

Advertisements
Track Severe Weather on mobile